Time;durP1;ratioP1;P1;durP2;ratioP2;P2;SDS_P1;SDS_P2;PMS_P1;PMS_P2;Temp;Humidity;BMP_temperature;BMP_pressure;BME280_temperature;BME280_humidity;BME280_pressure;Samples;Min_cycle;Max_cycle;Signal;HPM_P1;HPM_P2
2021/01/13 00:00:27;;;;;;;10.63;2.63;;;;;;;0.86;100.00;101096.81;5015697;28;20049;-81
2021/01/13 00:02:52;;;;;;;8.98;2.72;;;;;;;0.86;100.00;101105.59;5015560;28;20066;-82
2021/01/13 00:05:18;;;;;;;10.10;2.70;;;;;;;0.90;100.00;101104.44;5018398;28;20041;-81
2021/01/13 00:07:44;;;;;;;5.45;2.22;;;;;;;0.89;100.00;101104.53;5028040;28;20048;-81
2021/01/13 00:10:11;;;;;;;12.35;2.67;;;;;;;0.90;100.00;101106.25;5029669;28;20048;-81
2021/01/13 00:12:38;;;;;;;9.50;2.30;;;;;;;0.93;100.00;101103.41;5004838;28;20049;-83
2021/01/13 00:15:07;;;;;;;8.85;2.33;;;;;;;0.91;100.00;101105.31;5027805;28;20061;-81
2021/01/13 00:17:33;;;;;;;12.25;2.20;;;;;;;0.92;100.00;101096.41;5034581;28;20045;-80
2021/01/13 00:19:59;;;;;;;13.32;3.17;;;;;;;0.97;100.00;101104.91;5034679;28;20128;-82
2021/01/13 00:22:24;;;;;;;8.27;2.35;;;;;;;0.92;100.00;101109.63;5033717;28;20060;-80
2021/01/13 00:24:51;;;;;;;10.93;2.60;;;;;;;0.93;100.00;101110.50;5031200;28;20030;-80
2021/01/13 00:27:21;;;;;;;16.10;2.83;;;;;;;0.90;100.00;101093.88;5050001;28;20053;-81
2021/01/13 00:29:50;;;;;;;10.60;2.92;;;;;;;0.94;100.00;101096.34;5034487;28;20050;-81
2021/01/13 00:32:15;;;;;;;8.70;2.42;;;;;;;0.90;100.00;101106.25;5033333;28;20057;-82
2021/01/13 00:34:40;;;;;;;9.57;2.55;;;;;;;0.90;100.00;101100.97;5033815;28;20557;-82
2021/01/13 00:37:07;;;;;;;9.48;3.28;;;;;;;0.86;100.00;101095.03;5033955;28;20432;-80
2021/01/13 00:39:32;;;;;;;11.25;2.63;;;;;;;0.88;100.00;101092.28;5034664;28;20052;-81
2021/01/13 00:41:58;;;;;;;13.45;3.05;;;;;;;0.91;100.00;101102.66;5031345;28;20038;-82
2021/01/13 00:44:23;;;;;;;12.38;2.75;;;;;;;0.86;100.00;101100.31;5032674;28;20038;-80
2021/01/13 00:46:48;;;;;;;13.68;2.33;;;;;;;0.82;100.00;101092.66;5029633;28;20097;-80
2021/01/13 00:49:14;;;;;;;12.43;2.85;;;;;;;0.84;100.00;101090.78;5047368;28;20112;-80
2021/01/13 00:51:41;;;;;;;7.85;2.75;;;;;;;0.83;100.00;101094.34;5048374;28;20037;-81
2021/01/13 00:54:08;;;;;;;13.40;2.63;;;;;;;0.83;100.00;101099.63;5033250;28;20037;-82
2021/01/13 00:56:34;;;;;;;8.68;2.08;;;;;;;0.84;100.00;101090.78;5031934;28;20045;-82
2021/01/13 00:59:00;;;;;;;13.40;2.75;;;;;;;0.85;100.00;101092.47;5029307;28;20029;-83
2021/01/13 01:01:29;;;;;;;14.85;3.10;;;;;;;0.87;100.00;101095.88;5033403;28;20041;-83
2021/01/13 01:03:55;;;;;;;11.88;2.40;;;;;;;0.82;100.00;101092.66;5033158;28;20132;-83
2021/01/13 01:06:21;;;;;;;10.30;3.08;;;;;;;0.79;100.00;101093.69;5029651;28;20053;-83
2021/01/13 01:08:47;;;;;;;9.90;2.15;;;;;;;0.76;100.00;101085.97;5031250;28;20030;-82
2021/01/13 01:11:17;;;;;;;16.15;3.38;;;;;;;0.77;100.00;101077.06;5030256;28;20093;-82
2021/01/13 01:13:42;;;;;;;13.88;3.25;;;;;;;0.75;100.00;101089.56;5029485;28;20072;-83
2021/01/13 01:16:08;;;;;;;11.63;3.33;;;;;;;0.75;100.00;101086.03;5030605;28;20046;-82
2021/01/13 01:18:33;;;;;;;5.10;2.08;;;;;;;0.73;100.00;101083.50;5018889;28;20042;-83
2021/01/13 01:20:59;;;;;;;13.10;3.13;;;;;;;0.72;100.00;101087.09;5009472;28;20069;-83
2021/01/13 01:23:24;;;;;;;11.52;3.28;;;;;;;0.70;100.00;101088.97;5015977;28;20049;-83
2021/01/13 01:25:49;;;;;;;13.85;2.95;;;;;;;0.70;100.00;101088.97;5012316;28;20042;-83
2021/01/13 01:28:15;;;;;;;10.52;3.15;;;;;;;0.71;100.00;101090.66;5014727;28;20037;-83
2021/01/13 01:30:40;;;;;;;12.55;3.53;;;;;;;0.73;100.00;101101.16;5028405;28;20500;-83
2021/01/13 01:33:06;;;;;;;7.75;2.78;;;;;;;0.71;100.00;101100.38;5013632;28;20069;-83
2021/01/13 01:35:31;;;;;;;13.77;3.83;;;;;;;0.74;100.00;101102.84;5030946;28;20051;-83
2021/01/13 01:37:56;;;;;;;10.95;3.50;;;;;;;0.71;100.00;101113.59;5012159;28;20052;-83
2021/01/13 01:40:22;;;;;;;15.57;3.30;;;;;;;0.68;100.00;101106.69;5031323;28;20396;-83
2021/01/13 01:42:56;;;;;;;27.20;4.90;;;;;;;0.72;100.00;101094.16;5012412;28;20102;-83
2021/01/13 01:45:25;;;;;;;9.77;3.65;;;;;;;0.73;100.00;101106.44;5014229;28;20045;-83
2021/01/13 01:48:02;;;;;;;11.05;3.22;;;;;;;0.73;100.00;101103.78;5012358;28;20041;-83
2021/01/13 01:50:35;;;;;;;13.43;3.38;;;;;;;0.74;100.00;101108.13;5015037;28;20050;-83
2021/01/13 01:53:14;;;;;;;7.35;2.70;;;;;;;0.72;100.00;101104.72;5014266;28;20058;-83
2021/01/13 01:56:32;;;;;;;10.10;2.97;;;;;;;0.75;100.00;101113.34;5015061;28;20065;-83
2021/01/13 01:59:09;;;;;;;11.13;4.05;;;;;;;0.73;100.00;101104.63;4988847;28;20065;-83
2021/01/13 02:01:54;;;;;;;9.15;3.28;;;;;;;0.71;100.00;101116.25;5008884;28;20037;-83
2021/01/13 02:04:43;;;;;;;9.60;3.47;;;;;;;0.71;100.00;101117.09;5000191;28;20046;-83
2021/01/13 02:07:08;;;;;;;13.10;2.90;;;;;;;0.76;100.00;101119.47;5016626;28;20038;-83
2021/01/13 02:09:33;;;;;;;11.63;3.42;;;;;;;0.76;100.00;101119.47;5016574;28;20052;-83
2021/01/13 02:12:08;;;;;;;12.52;3.20;;;;;;;0.77;100.00;101113.22;5015398;28;20053;-83
2021/01/13 02:14:33;;;;;;;9.95;3.60;;;;;;;0.81;100.00;101117.41;5002485;28;20486;-83
2021/01/13 02:17:03;;;;;;;12.48;3.60;;;;;;;0.78;100.00;101112.31;5016217;28;20057;-83
2021/01/13 02:19:47;;;;;;;9.52;3.17;;;;;;;0.79;100.00;101114.84;5010289;28;20045;-83
2021/01/13 02:22:14;;;;;;;9.82;3.03;;;;;;;0.80;100.00;101113.03;5011446;28;20073;-83
2021/01/13 02:24:51;;;;;;;11.25;3.60;;;;;;;0.81;100.00;101122.69;5031984;28;20037;-83
2021/01/13 02:27:55;;;;;;;11.10;2.97;;;;;;;0.79;100.00;101119.28;5014422;28;20073;-83
2021/01/13 02:30:26;;;;;;;6.53;2.88;;;;;;;0.78;100.00;101128.16;5014189;28;20048;-83
2021/01/13 02:32:56;;;;;;;8.48;3.15;;;;;;;0.78;100.00;101120.22;5008088;28;20054;-83
2021/01/13 02:35:27;;;;;;;11.75;2.85;;;;;;;0.76;100.00;101120.31;5008019;28;20081;-83
2021/01/13 02:38:03;;;;;;;12.40;3.28;;;;;;;0.79;100.00;101124.56;5014913;28;20042;-83
2021/01/13 02:40:31;;;;;;;12.38;3.08;;;;;;;0.83;100.00;101120.78;5029962;28;20038;-83
2021/01/13 02:43:09;;;;;;;8.48;2.40;;;;;;;0.81;100.00;101117.41;5012099;28;20037;-83
2021/01/13 02:46:08;;;;;;;12.93;3.17;;;;;;;0.77;100.00;101116.72;5008143;28;20054;-83
2021/01/13 02:48:33;;;;;;;;;;;;;;;0.73;100.00;101120.50;5024941;28;20627;-83
2021/01/13 02:51:00;;;;;;;10.50;3.10;;;;;;;0.68;100.00;101118.13;5007402;28;19920;-83
2021/01/13 02:53:31;;;;;;;8.05;2.95;;;;;;;0.67;100.00;101107.66;5007333;28;20057;-83
2021/01/13 02:55:56;;;;;;;12.73;2.83;;;;;;;0.68;100.00;101110.19;5023888;28;20133;-82
2021/01/13 02:58:38;;;;;;;7.68;2.47;;;;;;;0.69;100.00;101111.03;5011074;28;20088;-83
2021/01/13 03:01:05;;;;;;;13.40;3.13;;;;;;;0.70;100.00;101122.47;5013194;28;20042;-83
2021/01/13 03:03:32;;;;;;;8.73;2.60;;;;;;;0.67;100.00;101120.88;5007812;28;20050;-83
2021/01/13 03:06:08;;;;;;;9.98;2.65;;;;;;;0.72;100.00;101112.66;5013043;28;20048;-83
2021/01/13 03:09:09;;;;;;;8.70;2.35;;;;;;;0.76;100.00;101120.31;5013128;28;20599;-83
2021/01/13 03:11:36;;;;;;;6.82;1.52;;;;;;;0.75;100.00;101134.47;5024011;28;20427;-83
2021/01/13 03:14:14;;;;;;;10.10;2.47;;;;;;;0.77;100.00;101121.16;5009420;28;20054;-83
2021/01/13 03:17:04;;;;;;;12.70;2.40;;;;;;;0.77;100.00;101115.88;5028687;28;20041;-83
2021/01/13 03:19:48;;;;;;;8.82;1.70;;;;;;;0.76;100.00;101122.09;5012407;28;20052;-83
2021/01/13 03:22:19;;;;;;;7.75;1.90;;;;;;;0.73;100.00;101120.50;5012480;28;20068;-83
2021/01/13 03:24:54;;;;;;;12.48;2.40;;;;;;;0.78;100.00;101120.22;5010165;28;20034;-83
2021/01/13 03:27:22;;;;;;;6.30;2.08;;;;;;;0.79;100.00;101112.19;5013123;28;20053;-83
2021/01/13 03:29:50;;;;;;;6.60;1.90;;;;;;;0.80;100.00;101116.50;5011653;28;20129;-83
2021/01/13 03:32:28;;;;;;;9.20;1.85;;;;;;;0.80;100.00;101120.97;5010662;28;20277;-83
2021/01/13 03:35:07;;;;;;;10.68;2.30;;;;;;;0.82;100.00;101127.84;5011790;28;20054;-83
2021/01/13 03:38:02;;;;;;;6.95;2.05;;;;;;;0.82;100.00;101117.28;5029618;28;20052;-83
2021/01/13 03:40:30;;;;;;;7.82;1.77;;;;;;;0.82;100.00;101119.91;5021211;28;20038;-83
2021/01/13 03:42:57;;;;;;;8.25;2.40;;;;;;;0.86;100.00;101136.44;5012513;28;20038;-83
2021/01/13 03:45:37;;;;;;;5.57;1.88;;;;;;;0.84;100.00;101133.91;5022232;28;20111;-84
2021/01/13 03:48:17;;;;;;;11.82;2.45;;;;;;;0.85;100.00;101134.75;5021609;28;20076;-83
2021/01/13 03:50:44;;;;;;;9.40;2.15;;;;;;;0.84;100.00;101138.34;5016116;28;20041;-83
2021/01/13 03:53:12;;;;;;;11.40;2.78;;;;;;;0.87;100.00;101132.88;5015840;28;20041;-83
2021/01/13 03:55:39;;;;;;;14.02;2.28;;;;;;;0.85;100.00;101124.19;5017794;28;20042;-83
2021/01/13 03:58:24;;;;;;;8.13;3.03;;;;;;;0.85;100.00;101118.88;5015586;28;20068;-83
2021/01/13 04:00:59;;;;;;;8.60;1.98;;;;;;;0.84;100.00;101127.78;5016642;28;20492;-82
2021/01/13 04:03:27;;;;;;;7.15;1.83;;;;;;;0.83;100.00;101121.63;5016390;28;20050;-83
2021/01/13 04:06:02;;;;;;;5.88;1.80;;;;;;;0.84;100.00;101118.06;5012753;28;20049;-82
2021/01/13 04:08:42;;;;;;;13.82;2.67;;;;;;;0.89;100.00;101120.38;5016111;28;20104;-83
2021/01/13 04:11:13;;;;;;;6.35;2.17;;;;;;;0.88;100.00;101122.19;5011408;28;20038;-83
2021/01/13 04:13:43;;;;;;;7.10;2.05;;;;;;;0.92;100.00;101125.47;5016884;28;20057;-83
2021/01/13 04:16:09;;;;;;;;;;;;;;;0.95;100.00;101113.88;5014600;28;20041;-83
2021/01/13 04:18:35;;;;;;;8.80;2.22;;;;;;;0.87;100.00;101122.28;5016283;28;20364;-83
2021/01/13 04:21:01;;;;;;;6.35;1.85;;;;;;;0.89;100.00;101113.34;5027318;28;20097;-83
2021/01/13 04:23:27;;;;;;;8.35;2.45;;;;;;;0.92;100.00;101109.63;5014582;28;20058;-83
2021/01/13 04:25:53;;;;;;;11.15;3.42;;;;;;;0.96;100.00;101113.81;5014544;28;20057;-83
2021/01/13 04:28:19;;;;;;;7.40;2.42;;;;;;;0.95;100.00;101106.81;5014218;28;20116;-83
2021/01/13 04:30:44;;;;;;;8.02;2.55;;;;;;;0.93;100.00;101097.28;5028142;28;20069;-82
2021/01/13 04:33:10;;;;;;;6.53;2.67;;;;;;;0.95;100.00;101104.19;5012589;28;20404;-83
2021/01/13 04:35:36;;;;;;;8.82;2.33;;;;;;;0.95;100.00;101098.03;5015294;28;20104;-83
2021/01/13 04:38:03;;;;;;;15.18;2.72;;;;;;;0.93;100.00;101113.16;5013530;28;20046;-83
2021/01/13 04:40:37;;;;;;;12.05;3.53;;;;;;;0.93;100.00;101106.06;5014957;28;20050;-83
2021/01/13 04:43:08;;;;;;;9.48;2.10;;;;;;;0.92;100.00;101101.69;5013703;28;20038;-83
2021/01/13 04:45:45;;;;;;;9.15;2.20;;;;;;;0.94;100.00;101113.03;5011934;28;20053;-83
2021/01/13 04:48:18;;;;;;;10.50;2.72;;;;;;;0.95;100.00;101101.53;5012392;28;20058;-85
2021/01/13 04:50:51;;;;;;;10.27;2.83;;;;;;;0.95;100.00;101104.19;5012821;28;20041;-83
2021/01/13 04:53:20;;;;;;;11.50;2.55;;;;;;;0.97;100.00;101094.34;4994570;28;20053;-83
2021/01/13 04:55:54;;;;;;;8.27;2.45;;;;;;;0.96;100.00;101100.59;5027344;28;20041;-83
2021/01/13 04:58:20;;;;;;;8.40;2.63;;;;;;;0.98;100.00;101106.63;4995132;28;20500;-83
2021/01/13 05:01:18;;;;;;;8.07;3.08;;;;;;;1.00;100.00;101096.78;5012264;28;20396;-83
2021/01/13 05:03:56;;;;;;;12.57;2.75;;;;;;;1.01;100.00;101093.22;5009652;28;20566;-83
2021/01/13 05:06:47;;;;;;;8.98;3.50;;;;;;;1.05;100.00;101107.94;5018213;28;20042;-83
2021/01/13 05:09:13;;;;;;;10.77;3.42;;;;;;;1.05;100.00;101115.03;5010751;28;20045;-85
2021/01/13 05:12:05;;;;;;;9.68;3.72;;;;;;;1.04;100.00;101122.09;5013732;28;20046;-83
2021/01/13 05:14:38;;;;;;;11.23;3.63;;;;;;;1.05;100.00;101115.03;5010335;28;20049;-84
2021/01/13 05:17:04;;;;;;;11.40;3.85;;;;;;;1.08;100.00;101114.84;5009861;28;20492;-84
2021/01/13 05:19:29;;;;;;;12.63;4.25;;;;;;;1.07;100.00;101108.69;5011902;28;20056;-81
2021/01/13 05:21:59;;;;;;;11.50;3.00;;;;;;;1.07;100.00;101106.06;5012090;28;20046;-82
2021/01/13 05:24:26;;;;;;;13.38;3.85;;;;;;;1.13;100.00;101102.19;5011913;28;20038;-85
2021/01/13 05:27:03;;;;;;;13.95;3.92;;;;;;;1.09;100.00;101111.22;5010518;28;20042;-85
2021/01/13 05:29:36;;;;;;;11.55;3.95;;;;;;;1.10;100.00;101105.03;5009538;28;20065;-83
2021/01/13 05:32:03;;;;;;;8.32;3.17;;;;;;;1.07;100.00;101103.41;5011014;28;20546;-85
2021/01/13 05:34:37;;;;;;;11.82;3.88;;;;;;;1.04;100.00;101095.69;5011903;28;20070;-82
2021/01/13 05:37:22;;;;;;;11.15;3.50;;;;;;;1.04;100.00;101093.03;5009907;28;20046;-84
2021/01/13 05:39:50;;;;;;;9.48;4.00;;;;;;;1.01;100.00;101082.66;5011625;28;20424;-83
2021/01/13 05:42:18;;;;;;;6.45;2.55;;;;;;;1.04;100.00;101085.09;5008838;28;20050;-84
2021/01/13 05:44:46;;;;;;;10.02;2.60;;;;;;;1.03;100.00;101070.19;5023764;28;20553;-82
2021/01/13 05:47:28;;;;;;;6.28;2.10;;;;;;;1.08;100.00;101075.19;5011253;28;20113;-83
2021/01/13 05:49:58;;;;;;;11.10;2.95;;;;;;;1.08;100.00;101072.53;5010100;28;20034;-88
2021/01/13 05:52:31;;;;;;;13.25;2.97;;;;;;;1.10;100.00;101078.59;5002857;28;20038;-82
2021/01/13 05:54:56;;;;;;;7.60;2.17;;;;;;;1.10;100.00;101079.44;5004759;28;20057;-84
2021/01/13 05:57:24;;;;;;;9.75;2.60;;;;;;;1.10;100.00;101071.50;5007420;28;20042;-87
2021/01/13 05:59:52;;;;;;;12.20;3.15;;;;;;;1.12;100.00;101069.63;5016159;28;20037;-84
2021/01/13 06:02:19;;;;;;;10.48;2.78;;;;;;;1.14;100.00;101066.88;5005910;28;20041;-83
2021/01/13 06:04:49;;;;;;;10.88;2.17;;;;;;;1.14;100.00;101066.88;5007455;28;20034;-82
2021/01/13 06:07:22;;;;;;;5.53;1.70;;;;;;;1.18;100.00;101056.94;5000877;28;20436;-88
2021/01/13 06:09:53;;;;;;;9.60;2.90;;;;;;;1.19;100.00;101053.38;5006134;28;20069;-84
2021/01/13 06:12:19;;;;;;;7.50;2.05;;;;;;;1.22;100.00;101047.88;5006435;28;20046;-84
2021/01/13 06:14:54;;;;;;;8.65;1.95;;;;;;;1.21;100.00;101054.97;5011052;28;20042;-82
2021/01/13 06:17:22;;;;;;;15.57;3.10;;;;;;;1.21;100.00;101060.25;4993998;28;20061;-88
2021/01/13 06:19:49;;;;;;;13.18;2.35;;;;;;;1.24;100.00;101056.56;5005578;28;20042;-84
2021/01/13 06:22:15;;;;;;;9.13;2.50;;;;;;;1.24;100.00;101056.56;5001079;28;20397;-83
2021/01/13 06:24:41;;;;;;;11.18;3.08;;;;;;;1.26;100.00;101038.78;5005024;28;20053;-87
2021/01/13 06:27:21;;;;;;;13.43;2.80;;;;;;;1.26;100.00;101055.50;5003034;28;20046;-84
2021/01/13 06:30:00;;;;;;;9.70;3.00;;;;;;;1.27;100.00;101061.66;5005121;28;20692;-82
2021/01/13 06:32:37;;;;;;;13.25;2.20;;;;;;;1.27;100.00;101056.38;5027886;28;20050;-87
2021/01/13 06:35:32;;;;;;;7.53;2.40;;;;;;;1.27;100.00;101051.94;5010324;28;20045;-80
2021/01/13 06:37:59;;;;;;;7.70;2.33;;;;;;;1.28;100.00;101058.06;5005717;28;20049;-83
2021/01/13 06:40:25;;;;;;;14.57;4.53;;;;;;;1.30;100.00;101056.19;5015105;28;20050;-83
2021/01/13 06:42:50;;;;;;;7.80;2.78;;;;;;;1.30;100.00;101057.03;5002728;28;20128;-83
2021/01/13 06:45:32;;;;;;;9.32;2.35;;;;;;;1.29;100.00;101054.47;5000847;28;20050;-84
2021/01/13 06:47:58;;;;;;;8.48;3.53;;;;;;;1.28;100.00;101061.56;5019243;28;20104;-83
2021/01/13 06:50:55;;;;;;;14.02;3.55;;;;;;;1.30;100.00;101066.75;5007241;28;20504;-84
2021/01/13 06:53:22;;;;;;;10.95;3.17;;;;;;;1.28;100.00;101052.78;5003121;28;20533;-83
2021/01/13 06:55:48;;;;;;;15.88;3.38;;;;;;;1.24;100.00;101052.13;5008446;28;20042;-86
2021/01/13 06:58:15;;;;;;;14.63;3.80;;;;;;;1.25;100.00;101059.09;5025624;28;20050;-81
2021/01/13 07:00:43;;;;;;;8.20;2.40;;;;;;;1.26;100.00;101044.09;5007564;28;20034;-83
2021/01/13 07:03:30;;;;;;;9.23;2.90;;;;;;;1.29;100.00;101054.47;5004551;28;20061;-86
2021/01/13 07:06:01;;;;;;;12.35;3.10;;;;;;;1.25;100.00;101053.81;5006964;28;20659;-83
2021/01/13 07:08:28;;;;;;;14.50;3.30;;;;;;;1.24;100.00;101059.22;5024647;28;20047;-83
2021/01/13 07:11:04;;;;;;;10.55;3.35;;;;;;;1.25;100.00;101068.84;5012568;28;20034;-82
2021/01/13 07:13:33;;;;;;;6.97;2.28;;;;;;;1.24;100.00;101056.56;5011750;28;20072;-83
2021/01/13 07:16:02;;;;;;;12.85;3.53;;;;;;;1.24;100.00;101062.69;5013041;28;20436;-83
2021/01/13 07:18:28;;;;;;;10.68;3.38;;;;;;;1.25;100.00;101060.91;5021864;28;20046;-83
2021/01/13 07:20:54;;;;;;;12.85;3.50;;;;;;;1.23;100.00;101060.16;5011825;28;20046;-84
2021/01/13 07:23:21;;;;;;;9.68;2.92;;;;;;;1.21;100.00;101062.03;5037842;28;20045;-84
2021/01/13 07:25:50;;;;;;;13.43;3.78;;;;;;;1.22;100.00;101069.03;5018146;28;20045;-84
2021/01/13 07:28:17;;;;;;;13.85;4.40;;;;;;;1.19;100.00;101070.06;5015743;28;20044;-81
2021/01/13 07:30:43;;;;;;;14.88;3.78;;;;;;;1.17;100.00;101079.03;5013973;28;20064;-82
2021/01/13 07:33:13;;;;;;;11.35;4.35;;;;;;;1.18;100.00;101073.69;5008886;28;20046;-81
2021/01/13 07:35:50;;;;;;;13.52;4.20;;;;;;;1.19;100.00;101074.50;5022596;28;20505;-83
2021/01/13 07:38:22;;;;;;;10.55;3.88;;;;;;;1.15;100.00;101073.84;5008266;28;20042;-82
2021/01/13 07:41:01;;;;;;;12.10;3.80;;;;;;;1.15;100.00;101073.00;5009048;28;20095;-83
2021/01/13 07:44:04;;;;;;;13.93;3.30;;;;;;;1.12;100.00;101080.19;5010339;28;20053;-83
2021/01/13 07:46:32;;;;;;;15.27;4.60;;;;;;;1.11;100.00;101067.91;5005598;28;20050;-83
2021/01/13 07:49:17;;;;;;;8.57;3.75;;;;;;;1.13;100.00;101067.81;5002493;28;20034;-84
2021/01/13 07:51:52;;;;;;;16.10;5.13;;;;;;;1.15;100.00;101067.72;5005582;28;20061;-80
2021/01/13 07:54:30;;;;;;;11.95;3.55;;;;;;;1.16;100.00;101072.91;5009382;28;20048;-84
2021/01/13 07:56:57;;;;;;;13.27;4.15;;;;;;;1.18;100.00;101065.75;4998756;28;20046;-83
2021/01/13 07:59:54;;;;;;;9.70;3.33;;;;;;;1.21;100.00;101067.31;5006806;28;20101;-81
2021/01/13 08:02:57;;;;;;;13.98;4.53;;;;;;;1.27;100.00;101082.81;5010159;28;20120;-83
2021/01/13 08:05:49;;;;;;;10.70;3.80;;;;;;;1.25;100.00;101082.06;5009677;28;20068;-82
2021/01/13 08:08:22;;;;;;;11.70;4.03;;;;;;;1.26;100.00;101086.38;5008348;28;20381;-83
2021/01/13 08:10:50;;;;;;;13.98;3.53;;;;;;;1.29;100.00;101087.03;5024920;28;20034;-84
2021/01/13 08:13:40;;;;;;;12.45;4.60;;;;;;;1.31;100.00;101085.16;5004565;28;20056;-83
2021/01/13 08:16:29;;;;;;;14.88;3.83;;;;;;;1.34;100.00;101089.41;5001625;28;20404;-82
2021/01/13 08:19:18;;;;;;;10.77;3.63;;;;;;;1.37;100.00;101080.41;5006028;28;20126;-81
2021/01/13 08:24:53;;;;;;;14.95;3.60;;;;;;;1.42;100.00;101092.41;4988201;28;20054;-83
2021/01/13 08:27:21;;;;;;;13.13;4.30;;;;;;;1.44;100.00;101090.53;5017821;28;20409;-83
2021/01/13 08:29:55;;;;;;;12.25;4.43;;;;;;;1.45;100.00;101086.91;5010638;28;20400;-85
2021/01/13 08:32:39;;;;;;;12.05;3.03;;;;;;;1.46;100.00;101088.59;5004462;28;20180;-83
2021/01/13 08:35:06;;;;;;;11.50;4.20;;;;;;;1.49;100.00;101087.56;5005712;28;20034;-83
2021/01/13 08:37:33;;;;;;;12.43;3.30;;;;;;;1.51;100.00;101091.81;5006245;28;20042;-83
2021/01/13 08:39:59;;;;;;;14.10;3.45;;;;;;;1.53;100.00;101089.09;5010468;28;20061;-81
2021/01/13 08:42:28;;;;;;;13.35;3.50;;;;;;;1.55;100.00;101097.75;5007845;28;20502;-83
2021/01/13 08:44:54;;;;;;;9.10;3.00;;;;;;;1.58;100.00;101090.47;5003352;28;20042;-83
2021/01/13 08:47:22;;;;;;;10.05;2.95;;;;;;;1.58;100.00;101084.31;5008855;28;20046;-87
2021/01/13 08:49:49;;;;;;;9.90;3.53;;;;;;;1.61;100.00;101075.34;5005904;28;20441;-83
2021/01/13 08:52:28;;;;;;;13.57;2.35;;;;;;;1.62;100.00;101077.91;5000051;28;20042;-83
2021/01/13 08:54:56;;;;;;;16.23;3.47;;;;;;;1.65;100.00;101088.28;4991813;28;20088;-83
2021/01/13 08:57:23;;;;;;;8.87;3.27;;;;;;;1.65;100.00;101072.41;5000881;28;20042;-84
2021/01/13 08:59:50;;;;;;;10.70;2.70;;;;;;;1.68;100.00;101076.66;5006156;28;20041;-82
2021/01/13 09:02:17;;;;;;;13.18;3.17;;;;;;;1.72;100.00;101075.50;4993150;28;20047;-84
2021/01/13 09:04:54;;;;;;;9.95;2.80;;;;;;;1.74;100.00;101078.91;4995809;28;20041;-80
2021/01/13 09:07:28;;;;;;;15.10;3.38;;;;;;;1.76;100.00;101074.34;5004730;28;20052;-82
2021/01/13 09:09:57;;;;;;;12.35;2.92;;;;;;;1.78;100.00;101070.66;5004473;28;20042;-81
2021/01/13 09:12:26;;;;;;;13.25;3.90;;;;;;;1.81;100.00;101074.88;5006657;28;20046;-81
2021/01/13 09:15:07;;;;;;;8.45;2.58;;;;;;;1.83;100.00;101066.84;5001078;28;20042;-81
2021/01/13 09:17:41;;;;;;;10.70;2.78;;;;;;;1.84;100.00;101066.72;5008503;28;20050;-81
2021/01/13 09:20:17;;;;;;;13.57;2.70;;;;;;;1.85;100.00;101065.81;5016398;28;20042;-84
2021/01/13 09:22:55;;;;;;;11.02;2.35;;;;;;;1.90;100.00;101078.72;4994234;28;20042;-84
2021/01/13 09:25:22;;;;;;;10.68;2.35;;;;;;;1.90;100.00;101076.94;4999826;28;20129;-81
2021/01/13 09:27:50;;;;;;;9.90;2.45;;;;;;;1.93;100.00;101071.44;5001325;28;20096;-81
2021/01/13 09:30:40;;;;;;;10.57;2.80;;;;;;;1.96;100.00;101065.94;5002691;28;20053;-81
2021/01/13 09:33:08;;;;;;;10.52;2.65;;;;;;;1.97;100.00;101077.38;4997458;28;20281;-82
2021/01/13 09:35:36;;;;;;;12.95;3.00;;;;;;;1.98;100.00;101069.31;5005954;28;20046;-80
2021/01/13 09:38:08;;;;;;;15.02;3.17;;;;;;;2.00;99.54;101067.44;4994196;28;20046;-80
2021/01/13 09:41:02;;;;;;;13.68;2.75;;;;;;;2.05;99.94;101068.94;5003497;28;20443;-85
2021/01/13 09:43:29;;;;;;;12.82;2.78;;;;;;;2.05;99.90;101063.66;4998452;28;20601;-80
2021/01/13 09:45:57;;;;;;;13.80;2.70;;;;;;;2.08;99.46;101060.78;4992786;28;20493;-85
2021/01/13 09:48:24;;;;;;;9.55;2.97;;;;;;;2.10;98.97;101064.16;5002610;28;20045;-87
2021/01/13 09:51:07;;;;;;;11.43;3.22;;;;;;;2.13;99.36;101070.13;4997795;28;20042;-82
2021/01/13 09:53:55;;;;;;;15.10;2.50;;;;;;;2.14;98.94;101065.66;5017063;28;20054;-82
2021/01/13 09:56:21;;;;;;;10.70;2.88;;;;;;;2.14;98.45;101073.59;5023677;28;20049;-83
2021/01/13 09:58:52;;;;;;;12.77;3.30;;;;;;;2.16;98.33;101071.72;5006018;28;20465;-82
2021/01/13 10:01:18;;;;;;;10.65;3.30;;;;;;;2.19;99.12;101060.91;5016655;28;20417;-82
2021/01/13 10:03:47;;;;;;;5.38;2.25;;;;;;;2.19;98.37;101060.91;5003000;28;20042;-83
2021/01/13 10:06:34;;;;;;;10.00;2.60;;;;;;;2.18;98.48;101080.38;5005068;28;20038;-82
2021/01/13 10:09:08;;;;;;;8.55;2.95;;;;;;;2.18;98.83;101060.03;5001665;28;20042;-82
2021/01/13 10:11:34;;;;;;;13.25;3.28;;;;;;;2.17;98.71;101057.50;5006269;28;20054;-83
2021/01/13 10:14:02;;;;;;;11.45;2.88;;;;;;;2.19;98.64;101067.06;5007643;28;20156;-85
2021/01/13 10:16:29;;;;;;;23.15;8.10;;;;;;;2.22;98.49;101058.91;5003695;28;20048;-85
2021/01/13 10:19:01;;;;;;;10.40;3.30;;;;;;;2.27;98.05;101045.31;5006028;28;20038;-82
2021/01/13 10:21:55;;;;;;;12.60;5.55;;;;;;;2.40;97.90;101058.59;5018204;28;20042;-83
2021/01/13 10:24:24;;;;;;;11.98;3.55;;;;;;;2.47;97.65;101059.84;5008506;28;20050;-82
2021/01/13 10:26:50;;;;;;;12.25;2.10;;;;;;;2.53;97.09;101055.94;5007170;28;20459;-83
2021/01/13 10:29:23;;;;;;;11.93;2.90;;;;;;;2.61;97.28;101059.75;5008564;28;20049;-82
2021/01/13 10:31:50;;;;;;;13.60;2.78;;;;;;;2.68;96.38;101050.44;5009014;28;20034;-83
2021/01/13 10:34:16;;;;;;;15.35;3.70;;;;;;;2.76;95.61;101059.63;5006604;28;20085;-82
2021/01/13 10:36:51;;;;;;;15.40;3.38;;;;;;;2.83;95.21;101052.97;5006766;28;20093;-83
2021/01/13 10:39:27;;;;;;;23.67;9.10;;;;;;;2.89;94.48;101055.19;5000313;28;20056;-82
2021/01/13 10:42:06;;;;;;;12.68;3.15;;;;;;;2.96;94.84;101050.28;5006436;28;20057;-83
2021/01/13 10:44:32;;;;;;;10.20;3.00;;;;;;;2.97;93.32;101036.94;5008941;28;20049;-82
2021/01/13 10:47:09;;;;;;;13.15;4.32;;;;;;;2.99;94.07;101053.56;5008474;28;20041;-82
2021/01/13 10:49:42;;;;;;;12.13;3.30;;;;;;;3.01;93.71;101053.47;5027661;28;20432;-85
2021/01/13 10:52:16;;;;;;;14.20;6.47;;;;;;;3.03;93.88;101047.09;5008547;28;20117;-84
2021/01/13 10:54:46;;;;;;;10.50;4.20;;;;;;;3.03;94.34;101036.50;5007091;28;20405;-82
2021/01/13 10:57:13;;;;;;;11.32;3.13;;;;;;;3.02;93.76;101044.53;5011838;28;20096;-83
2021/01/13 10:59:41;;;;;;;31.88;16.17;;;;;;;3.03;94.68;101043.59;5016927;28;20042;-85
2021/01/13 11:02:11;;;;;;;14.43;2.47;;;;;;;3.06;93.25;101046.03;5012877;28;20034;-83
2021/01/13 11:04:39;;;;;;;15.80;4.13;;;;;;;3.12;93.43;101035.81;5040682;28;20043;-83
2021/01/13 11:07:11;;;;;;;30.52;13.40;;;;;;;3.20;92.99;101034.44;5022921;28;20451;-85
2021/01/13 11:09:40;;;;;;;16.40;5.80;;;;;;;3.22;93.21;101038.66;5007675;28;20088;-85
2021/01/13 11:12:06;;;;;;;15.00;6.03;;;;;;;3.23;93.20;101021.81;5003189;28;20137;-83
2021/01/13 11:14:35;;;;;;;16.38;5.03;;;;;;;3.25;93.46;101019.91;5006875;28;20473;-83
2021/01/13 11:17:11;;;;;;;11.70;5.50;;;;;;;3.27;93.01;101017.13;5001172;28;20172;-80
2021/01/13 11:19:42;;;;;;;14.15;5.35;;;;;;;3.31;93.21;101026.53;5021241;28;20097;-85
2021/01/13 11:22:07;;;;;;;12.07;3.30;;;;;;;3.33;92.79;101020.16;5002731;28;20077;-85
2021/01/13 11:24:41;;;;;;;20.08;5.03;;;;;;;3.39;94.06;101017.09;4974852;28;20069;-81
2021/01/13 11:27:13;;;;;;;12.95;4.18;;;;;;;3.42;92.62;101015.13;5003891;28;20127;-82
2021/01/13 11:29:41;;;;;;;12.40;3.30;;;;;;;3.45;92.49;101020.22;5018994;28;20407;-83
2021/01/13 11:32:08;;;;;;;8.48;4.57;;;;;;;3.47;92.13;101020.97;5007318;28;20050;-83
2021/01/13 11:34:34;;;;;;;8.60;3.22;;;;;;;3.50;92.31;101013.63;5023027;28;20112;-82
2021/01/13 11:37:12;;;;;;;9.88;2.97;;;;;;;3.53;92.42;101017.84;4993602;28;20029;-81
2021/01/13 11:40:08;;;;;;;11.80;3.75;;;;;;;3.53;91.54;101012.53;5005838;28;20122;-88
2021/01/13 11:42:58;;;;;;;13.20;3.45;;;;;;;3.55;92.15;101008.81;4978237;28;20050;-84
2021/01/13 11:45:36;;;;;;;15.85;3.40;;;;;;;3.57;92.68;101006.06;5008718;28;20523;-84
2021/01/13 11:48:07;;;;;;;11.85;4.38;;;;;;;3.57;92.00;100992.81;5002077;28;20054;-83